createdAt,value
2022-11-24T00:01:52.276Z,20.42
2022-11-24T00:04:39.180Z,17.13
2022-11-24T00:07:13.308Z,22.27
2022-11-24T00:10:00.218Z,22.50
2022-11-24T00:12:41.286Z,20.15
2022-11-24T00:15:21.181Z,23.45
2022-11-24T00:18:02.248Z,23.52
2022-11-24T00:20:42.194Z,24.70
2022-11-24T00:23:23.246Z,24.27
2022-11-24T00:26:10.185Z,23.80
2022-11-24T00:28:52.342Z,23.52
2022-11-24T00:31:44.178Z,25.35
2022-11-24T00:34:25.279Z,23.45
2022-11-24T00:37:05.204Z,26.58
2022-11-24T00:39:46.287Z,22.83
2022-11-24T00:42:33.179Z,21.70
2022-11-24T00:45:21.153Z,20.60
2022-11-24T00:48:02.184Z,22.67
2022-11-24T00:50:49.177Z,21.38
2022-11-24T00:53:23.286Z,21.67
2022-11-24T00:56:11.431Z,21.67
2022-11-24T00:58:52.367Z,19.92
2022-11-24T01:01:35.244Z,19.52
2022-11-24T01:04:16.336Z,21.27
2022-11-24T01:06:56.196Z,19.55
2022-11-24T01:09:36.342Z,18.58
2022-11-24T01:12:17.172Z,22.88
2022-11-24T01:14:58.288Z,19.08
2022-11-24T01:17:38.197Z,19.90
2022-11-24T01:20:19.267Z,19.10
2022-11-24T01:22:59.199Z,19.95
2022-11-24T01:25:40.360Z,21.33
2022-11-24T01:28:21.179Z,19.48
2022-11-24T01:31:06.437Z,19.63
2022-11-24T01:33:47.201Z,20.63
2022-11-24T01:36:28.260Z,21.25
2022-11-24T01:39:09.244Z,20.08
2022-11-24T01:41:56.195Z,18.67
2022-11-24T01:44:31.470Z,21.73
2022-11-24T01:47:34.194Z,23.08
2022-11-24T01:50:22.245Z,21.77
2022-11-24T01:53:03.280Z,22.08
2022-11-24T01:55:46.191Z,22.63
2022-11-24T01:58:35.206Z,24.90
2022-11-24T02:01:09.657Z,24.90
2022-11-24T02:03:59.173Z,22.85
2022-11-24T02:09:33.233Z,23.25
2022-11-24T02:12:07.294Z,22.98
2022-11-24T02:14:56.200Z,26.27
2022-11-24T02:17:30.149Z,23.65
2022-11-24T02:20:22.188Z,23.60
2022-11-24T02:23:14.992Z,27.90
2022-11-24T02:26:03.182Z,29.02
2022-11-24T02:28:37.371Z,27.27
2022-11-24T02:31:25.252Z,21.95
2022-11-24T02:33:59.186Z,21.23
2022-11-24T02:36:47.186Z,20.25
2022-11-24T02:39:28.192Z,27.52
2022-11-24T02:42:16.273Z,24.75
2022-11-24T02:44:58.199Z,21.63
2022-11-24T02:47:38.266Z,21.98
2022-11-24T02:50:18.201Z,24.85
2022-11-24T02:53:06.212Z,24.52
2022-11-24T02:55:40.193Z,23.80
2022-11-24T02:58:28.196Z,22.35
2022-11-24T03:01:15.187Z,24.83
2022-11-24T03:03:49.265Z,25.13
2022-11-24T03:06:36.183Z,24.73
2022-11-24T03:09:10.779Z,20.92
2022-11-24T03:11:57.184Z,20.27
2022-11-24T03:14:31.403Z,19.45
2022-11-24T03:17:18.200Z,19.58
2022-11-24T03:20:04.284Z,20.02
2022-11-24T03:22:59.209Z,20.70
2022-11-24T03:25:46.197Z,18.13
2022-11-24T03:28:20.243Z,20.65
2022-11-24T03:31:07.243Z,19.92
2022-11-24T03:33:42.257Z,23.77
2022-11-24T03:36:29.201Z,21.88
2022-11-24T03:39:03.259Z,23.52
2022-11-24T03:41:50.196Z,22.60
2022-11-24T03:44:24.282Z,24.63
2022-11-24T03:47:11.177Z,23.73
2022-11-24T03:49:52.197Z,23.42
2022-11-24T03:52:46.180Z,24.30
2022-11-24T03:55:33.194Z,25.95
2022-11-24T03:58:07.302Z,26.30
2022-11-24T04:00:59.186Z,25.00
2022-11-24T04:03:40.265Z,25.85
2022-11-24T04:06:20.184Z,23.58
2022-11-24T04:09:01.314Z,26.00
2022-11-24T04:12:07.178Z,25.88
2022-11-24T04:14:41.283Z,23.63
2022-11-24T04:17:28.205Z,23.40
2022-11-24T04:20:02.256Z,21.70
2022-11-24T04:22:50.224Z,22.73
2022-11-24T04:25:31.191Z,23.95
2022-11-24T04:28:25.193Z,23.75
2022-11-24T04:33:46.263Z,21.40
2022-11-24T04:36:27.204Z,20.27
2022-11-24T04:39:19.806Z,23.70
2022-11-24T04:57:39.315Z,22.17
2022-11-24T05:00:27.341Z,23.58
2022-11-24T05:03:01.499Z,26.02
2022-11-24T05:05:49.350Z,24.73
2022-11-24T05:08:30.273Z,25.63
2022-11-24T05:11:17.191Z,25.80
2022-11-24T05:13:51.248Z,26.55
2022-11-24T05:16:39.248Z,24.00
2022-11-24T05:19:13.465Z,23.80
2022-11-24T05:22:01.250Z,21.60
2022-11-24T05:24:35.628Z,23.52
2022-11-24T05:27:23.162Z,23.15
2022-11-24T05:30:04.156Z,22.67
2022-11-24T05:32:58.181Z,21.92
2022-11-24T05:35:45.177Z,22.02
2022-11-24T05:38:21.169Z,23.67
2022-11-24T05:41:09.168Z,21.73
2022-11-24T05:43:43.240Z,20.92
2022-11-24T05:46:30.220Z,20.08
2022-11-24T05:49:11.181Z,21.27
2022-11-24T05:52:05.122Z,20.02
2022-11-24T05:54:52.156Z,20.15
2022-11-24T05:57:26.178Z,19.65
2022-11-24T06:00:15.148Z,19.80
2022-11-24T06:02:49.286Z,22.15
2022-11-24T06:05:37.156Z,20.48
2022-11-24T06:08:11.203Z,20.15
2022-11-24T06:10:58.119Z,19.70
2022-11-24T06:13:32.245Z,20.08
2022-11-24T06:16:20.162Z,25.42
2022-11-24T06:18:54.210Z,22.10
2022-11-24T06:21:41.145Z,18.52
2022-11-24T06:24:22.141Z,20.00
2022-11-24T06:27:16.142Z,20.90
2022-11-24T06:32:37.271Z,19.42
2022-11-24T06:35:25.129Z,23.10
2022-11-24T06:38:08.302Z,21.77
2022-11-24T06:40:55.119Z,23.88
2022-11-24T06:43:29.231Z,23.17
2022-11-24T06:46:16.213Z,25.95
2022-11-24T06:48:51.182Z,25.48
2022-11-24T06:51:38.167Z,26.40
2022-11-24T06:54:22.117Z,25.20
2022-11-24T06:57:09.122Z,24.90
2022-11-24T06:59:43.211Z,26.75
2022-11-24T07:02:30.150Z,25.13
2022-11-24T07:05:04.190Z,26.17
2022-11-24T07:07:51.219Z,25.67
2022-11-24T07:10:25.230Z,27.38
2022-11-24T07:13:16.151Z,24.50
2022-11-24T07:15:50.212Z,26.75
2022-11-24T07:18:37.144Z,24.55
2022-11-24T07:21:19.135Z,25.67
2022-11-24T07:24:13.132Z,25.02
2022-11-24T07:27:00.122Z,23.40
2022-11-24T07:29:41.122Z,26.70
2022-11-24T07:32:28.171Z,25.23
2022-11-24T07:35:02.219Z,24.25
2022-11-24T07:37:49.147Z,25.30
2022-11-24T07:40:37.151Z,24.30
2022-11-24T07:43:14.658Z,26.73
2022-11-24T07:46:06.186Z,25.88
2022-11-24T07:48:40.351Z,23.92
2022-11-24T07:51:28.156Z,22.95
2022-11-24T07:54:02.072Z,24.60
2022-11-24T07:56:50.146Z,26.13
2022-11-24T07:59:25.082Z,29.15
2022-11-24T08:02:13.203Z,25.33
2022-11-24T08:04:47.068Z,25.38
2022-11-24T08:07:35.210Z,25.27
2022-11-24T08:10:16.172Z,22.80
2022-11-24T08:12:57.198Z,23.45
2022-11-24T08:15:38.147Z,16.50
2022-11-24T08:18:19.229Z,21.80
2022-11-24T08:20:59.164Z,22.83
2022-11-24T08:23:47.203Z,21.95
2022-11-24T08:26:21.112Z,25.92
2022-11-24T08:29:03.160Z,27.13
2022-11-24T08:31:37.305Z,22.98
2022-11-24T08:34:18.146Z,26.15
2022-11-24T08:36:59.273Z,25.40
2022-11-24T08:39:40.217Z,25.92
2022-11-24T08:42:21.214Z,23.45
2022-11-24T08:45:17.541Z,23.38
2022-11-24T08:48:02.298Z,20.50
2022-11-24T08:50:44.162Z,21.42
2022-11-24T08:53:25.220Z,20.67
2022-11-24T08:56:14.168Z,18.83
2022-11-24T08:58:48.347Z,20.07
2022-11-24T09:01:36.235Z,20.80
2022-11-24T09:04:10.245Z,20.70
2022-11-24T09:06:57.149Z,19.65
2022-11-24T09:09:31.279Z,20.48
2022-11-24T09:12:19.169Z,18.80
2022-11-24T09:14:53.300Z,19.63
2022-11-24T09:17:40.152Z,25.00
2022-11-24T09:20:14.306Z,24.95
2022-11-24T09:23:03.157Z,25.83
2022-11-24T09:25:37.521Z,22.92
2022-11-24T09:28:24.244Z,23.35
2022-11-24T09:30:58.265Z,24.08
2022-11-24T09:33:46.167Z,21.45
2022-11-24T09:36:27.178Z,22.27
2022-11-24T09:39:14.165Z,22.17
2022-11-24T09:41:55.277Z,21.63
2022-11-24T09:45:02.193Z,21.25
2022-11-24T09:47:53.162Z,22.80
2022-11-24T09:50:34.708Z,21.23
2022-11-24T09:53:36.230Z,22.38
2022-11-24T09:56:28.176Z,23.58
2022-11-24T09:59:34.499Z,20.45
2022-11-24T10:02:19.156Z,22.45
2022-11-24T10:05:00.342Z,23.98
2022-11-24T10:08:13.172Z,23.58
2022-11-24T10:11:04.234Z,22.92
2022-11-24T10:13:57.168Z,21.65
2022-11-24T10:17:20.212Z,25.05
2022-11-24T10:20:13.166Z,23.73
2022-11-24T10:22:54.169Z,24.15
2022-11-24T10:25:56.171Z,23.73
2022-11-24T10:28:34.217Z,18.88
2022-11-24T10:31:32.247Z,22.02
2022-11-24T10:34:17.317Z,22.73
2022-11-24T10:37:19.148Z,21.75
2022-11-24T10:43:37.156Z,22.08
2022-11-24T10:46:27.264Z,24.45
2022-11-24T10:49:21.143Z,22.92
2022-11-24T10:52:22.174Z,24.80
2022-11-24T10:55:16.159Z,23.95
2022-11-24T10:58:21.168Z,26.33
2022-11-24T11:00:55.244Z,29.00
2022-11-24T11:03:53.164Z,28.58
2022-11-24T11:06:44.175Z,23.00
2022-11-24T11:09:38.130Z,25.30
2022-11-24T11:12:43.460Z,25.38
2022-11-24T11:15:37.377Z,23.20
2022-11-24T11:18:25.193Z,26.92
2022-11-24T11:21:04.282Z,25.15
2022-11-24T11:23:52.155Z,26.85
2022-11-24T11:26:32.329Z,25.00
2022-11-24T11:35:30.177Z,22.60
2022-11-24T11:38:06.916Z,22.35
2022-11-24T11:40:55.167Z,24.05
2022-11-24T11:43:34.004Z,22.13
2022-11-24T11:46:27.257Z,24.70
2022-11-24T11:49:08.181Z,24.15
2022-11-24T11:51:49.292Z,30.92
2022-11-24T11:54:37.420Z,28.23
2022-11-24T11:57:26.176Z,26.48
2022-11-24T12:00:01.150Z,26.52
2022-11-24T12:03:01.252Z,26.02
2022-11-24T12:08:28.572Z,22.90
2022-11-24T12:11:19.188Z,24.52
2022-11-24T12:14:36.675Z,23.58
2022-11-24T12:17:45.191Z,22.00
2022-11-24T12:20:25.043Z,25.48
2022-11-24T12:23:22.187Z,25.42
2022-11-24T12:26:10.152Z,25.02
2022-11-24T12:29:10.160Z,23.73
2022-11-24T12:31:53.389Z,22.48
2022-11-24T12:34:59.155Z,23.10
2022-11-24T12:37:35.867Z,23.10
2022-11-24T12:40:34.228Z,24.65
2022-11-24T12:43:27.197Z,21.42
2022-11-24T12:46:21.195Z,20.98
2022-11-24T12:49:03.767Z,23.25
2022-11-24T12:51:54.176Z,24.85
2022-11-24T12:54:30.284Z,23.40
2022-11-24T12:57:24.180Z,24.60
2022-11-24T12:59:58.085Z,26.70
2022-11-24T13:03:04.296Z,22.70
2022-11-24T13:05:50.330Z,34.97
2022-11-24T13:08:38.188Z,21.00
2022-11-24T13:11:24.502Z,25.20
2022-11-24T13:14:13.182Z,18.70
2022-11-24T13:17:29.599Z,22.77
2022-11-24T13:20:27.176Z,23.02
2022-11-24T13:23:05.775Z,25.13
2022-11-24T13:26:21.163Z,25.30
2022-11-24T13:29:25.367Z,28.00
2022-11-24T13:32:12.172Z,23.90
2022-11-24T13:34:55.369Z,25.05
2022-11-24T13:37:43.199Z,25.30
2022-11-24T13:40:20.810Z,24.88
2022-11-24T13:43:09.190Z,22.38
2022-11-24T13:45:49.835Z,21.98
2022-11-24T13:48:36.315Z,26.23
2022-11-24T13:51:10.276Z,24.40
2022-11-24T13:53:58.168Z,25.45
2022-11-24T13:56:33.283Z,24.80
2022-11-24T13:59:25.184Z,23.92
2022-11-24T14:02:05.309Z,26.52
2022-11-24T14:04:52.182Z,25.38
2022-11-24T14:07:26.325Z,26.45
2022-11-24T14:10:21.172Z,23.83
2022-11-24T14:13:29.269Z,27.00
2022-11-24T14:16:16.310Z,23.55
2022-11-24T14:18:55.241Z,23.98
2022-11-24T14:21:51.172Z,23.58
2022-11-24T14:24:41.639Z,21.08
2022-11-24T14:27:37.386Z,21.83
2022-11-24T14:30:13.372Z,22.30
2022-11-24T14:33:07.227Z,20.63
2022-11-24T14:35:42.255Z,20.23
2022-11-24T14:38:29.192Z,18.05
2022-11-24T14:41:06.810Z,21.23
2022-11-24T14:43:57.181Z,21.08
2022-11-24T14:46:31.277Z,24.45
2022-11-24T14:49:24.177Z,21.58
2022-11-24T14:52:09.264Z,23.77
2022-11-24T14:55:17.630Z,23.80
2022-11-24T14:57:55.259Z,21.48
2022-11-24T15:00:43.241Z,21.55
2022-11-24T15:03:22.268Z,21.67
2022-11-24T15:06:09.202Z,23.40
2022-11-24T15:08:52.247Z,24.70
2022-11-24T15:11:32.179Z,22.67
2022-11-24T15:14:38.209Z,24.38
2022-11-24T15:17:16.770Z,24.48
2022-11-24T15:20:09.204Z,23.75
2022-11-24T15:22:51.173Z,23.08
2022-11-24T15:25:44.244Z,25.77
2022-11-24T15:28:18.246Z,29.98
2022-11-24T15:31:13.238Z,27.83
2022-11-24T15:33:47.238Z,27.13
2022-11-24T15:36:35.198Z,26.25
2022-11-24T15:39:16.192Z,26.75
2022-11-24T15:41:57.278Z,25.90
2022-11-24T15:44:38.179Z,26.65
2022-11-24T15:47:19.245Z,29.15
2022-11-24T15:49:59.180Z,29.70
2022-11-24T15:52:47.191Z,28.50
2022-11-24T15:55:22.612Z,25.50
2022-11-24T15:58:10.225Z,23.17
2022-11-24T16:00:51.257Z,24.25
2022-11-24T16:03:47.102Z,23.52
2022-11-24T16:06:41.217Z,24.83
2022-11-24T16:09:29.188Z,26.63
2022-11-24T16:12:10.212Z,28.20
2022-11-24T16:15:05.210Z,24.55
2022-11-24T16:17:53.208Z,23.38
2022-11-24T16:20:27.295Z,24.25
2022-11-24T16:23:15.199Z,24.42
2022-11-24T16:25:56.205Z,22.98
2022-11-24T16:28:43.195Z,24.63
2022-11-24T16:31:18.472Z,23.98
2022-11-24T16:34:06.191Z,24.90
2022-11-24T16:36:47.203Z,24.73
2022-11-24T16:39:46.973Z,24.20
2022-11-24T16:42:37.194Z,23.35
2022-11-24T16:45:18.187Z,25.40
2022-11-24T16:48:41.237Z,25.02
2022-11-24T16:51:29.930Z,25.05
2022-11-24T16:54:27.190Z,27.25
2022-11-24T16:57:15.091Z,27.15
2022-11-24T16:59:56.226Z,26.00
2022-11-24T17:02:50.283Z,32.45
2022-11-24T17:05:37.227Z,35.67
2022-11-24T17:08:18.203Z,32.70
2022-11-24T17:11:13.278Z,32.17
2022-11-24T17:14:00.215Z,28.05
2022-11-24T17:16:34.377Z,29.35
2022-11-24T17:19:22.237Z,29.42
2022-11-24T17:21:57.243Z,28.85
2022-11-24T17:24:44.207Z,23.40
2022-11-24T17:27:25.257Z,21.50
2022-11-24T17:30:05.237Z,25.75
2022-11-24T17:32:56.781Z,24.33
2022-11-24T17:35:31.265Z,26.70
2022-11-24T17:38:19.219Z,24.17
2022-11-24T17:40:59.190Z,28.13
2022-11-24T17:43:47.275Z,27.13
2022-11-24T17:46:21.207Z,27.90
2022-11-24T17:49:09.214Z,27.75
2022-11-24T17:51:53.226Z,27.73
2022-11-24T17:54:49.477Z,25.85
2022-11-24T17:57:33.189Z,25.98
2022-11-24T18:00:15.273Z,26.60
2022-11-24T18:02:56.194Z,28.83
2022-11-24T18:05:37.321Z,25.60
2022-11-24T18:08:25.230Z,28.77
2022-11-24T18:10:59.299Z,28.88
2022-11-24T18:14:02.932Z,27.92
2022-11-24T18:16:40.350Z,26.88
2022-11-24T18:19:27.201Z,28.08
2022-11-24T18:22:08.247Z,25.48
2022-11-24T18:25:02.191Z,27.85
2022-11-24T18:27:49.235Z,28.75
2022-11-24T18:30:23.289Z,25.02
2022-11-24T18:33:10.182Z,25.95
2022-11-24T18:35:44.281Z,26.30
2022-11-24T18:38:32.195Z,27.67
2022-11-24T18:41:07.337Z,25.27
2022-11-24T18:43:54.199Z,26.65
2022-11-24T18:46:35.205Z,23.08
2022-11-24T18:49:29.217Z,25.52
2022-11-24T18:52:16.193Z,25.55
2022-11-24T18:54:50.281Z,23.95
2022-11-24T18:57:38.203Z,24.05
2022-11-24T19:00:20.256Z,22.67
2022-11-24T19:03:14.199Z,23.83
2022-11-24T19:06:01.200Z,24.85
2022-11-24T19:08:35.328Z,22.75
2022-11-24T19:11:30.233Z,22.55
2022-11-24T19:14:11.288Z,26.83
2022-11-24T19:17:05.261Z,28.77
2022-11-24T19:19:52.215Z,27.95
2022-11-24T19:22:26.258Z,24.33
2022-11-24T19:25:14.246Z,26.35
2022-11-24T19:27:55.266Z,24.38
2022-11-24T19:30:36.216Z,23.95
2022-11-24T19:33:25.220Z,24.75
2022-11-24T19:36:11.216Z,26.98
2022-11-24T19:39:11.280Z,25.13
2022-11-24T19:41:45.350Z,25.52
2022-11-24T19:44:33.482Z,28.00
2022-11-24T19:47:14.202Z,25.70
2022-11-24T19:50:06.046Z,22.17
2022-11-24T19:52:49.221Z,24.73
2022-11-24T19:55:37.197Z,20.58
2022-11-24T19:58:11.122Z,25.33
2022-11-24T20:00:59.226Z,24.48
2022-11-24T20:03:39.204Z,29.30
2022-11-24T20:06:27.828Z,28.67
2022-11-24T20:09:02.371Z,24.15
2022-11-24T20:11:50.231Z,25.20
2022-11-24T20:14:31.215Z,30.30
2022-11-24T20:17:14.013Z,31.73
2022-11-24T20:19:54.241Z,28.27
2022-11-24T20:22:42.209Z,29.48
2022-11-24T20:25:22.244Z,30.95
2022-11-24T20:28:03.284Z,27.15
2022-11-24T20:30:50.207Z,28.50
2022-11-24T20:33:24.311Z,30.30
2022-11-24T20:36:12.214Z,28.52
2022-11-24T20:38:47.343Z,27.38
2022-11-24T20:41:36.207Z,27.15
2022-11-24T20:44:13.161Z,26.23
2022-11-24T20:47:02.231Z,29.10
2022-11-24T20:49:36.257Z,27.80
2022-11-24T20:52:23.205Z,26.77
2022-11-24T20:55:05.241Z,25.88
2022-11-24T20:57:52.236Z,23.98
2022-11-24T21:00:26.275Z,26.13
2022-11-24T21:03:13.204Z,28.63
2022-11-24T21:05:47.269Z,28.15
2022-11-24T21:08:34.208Z,26.65
2022-11-24T21:11:15.257Z,29.38
2022-11-24T21:14:03.215Z,28.00
2022-11-24T21:16:38.385Z,32.50
2022-11-24T21:19:21.226Z,28.92
2022-11-24T21:22:01.225Z,33.63
2022-11-24T21:24:42.226Z,29.55
2022-11-24T21:27:36.221Z,29.13
2022-11-24T21:30:23.211Z,28.17
2022-11-24T21:32:57.382Z,26.55
2022-11-24T21:35:45.220Z,26.58
2022-11-24T21:38:19.479Z,25.65
2022-11-24T21:41:11.236Z,25.73
2022-11-24T21:43:45.446Z,27.30
2022-11-24T21:46:32.227Z,28.95
2022-11-24T21:49:06.283Z,25.65
2022-11-24T21:51:54.227Z,24.85
2022-11-24T21:54:28.311Z,26.52
2022-11-24T22:00:13.336Z,27.45
2022-11-24T22:03:01.353Z,27.50
2022-11-24T22:05:42.332Z,27.23
2022-11-24T22:08:31.347Z,27.35
2022-11-24T22:11:15.452Z,26.80
2022-11-24T22:14:02.330Z,28.55
2022-11-24T22:16:36.816Z,27.30
2022-11-24T22:19:23.332Z,28.45
2022-11-24T22:21:57.439Z,25.70
2022-11-24T22:24:44.344Z,28.02
2022-11-24T22:27:25.357Z,25.42
2022-11-24T22:30:13.376Z,23.73
2022-11-24T22:32:54.334Z,26.65
2022-11-24T22:35:41.368Z,23.73
2022-11-24T22:38:22.344Z,25.55
2022-11-24T22:41:18.360Z,26.35
2022-11-24T22:44:06.344Z,25.83
2022-11-24T22:46:40.501Z,26.42
2022-11-24T22:49:35.382Z,28.90
2022-11-24T22:52:29.325Z,23.92
2022-11-24T22:55:16.360Z,23.50
2022-11-24T22:57:57.383Z,25.00
2022-11-24T23:00:51.350Z,23.90
2022-11-24T23:03:39.393Z,23.17
2022-11-24T23:06:15.397Z,21.90
2022-11-24T23:09:04.367Z,25.27
2022-11-24T23:11:48.347Z,25.08
2022-11-24T23:14:42.541Z,21.92
2022-11-24T23:17:29.338Z,23.13
2022-11-24T23:20:10.363Z,26.30
2022-11-24T23:23:04.337Z,24.17
2022-11-24T23:25:51.369Z,21.55
2022-11-24T23:28:32.386Z,22.33
2022-11-24T23:31:28.410Z,22.67
2022-11-24T23:34:16.355Z,23.33
2022-11-24T23:36:50.424Z,21.77
2022-11-24T23:39:37.365Z,24.60
2022-11-24T23:42:11.439Z,24.27
2022-11-24T23:44:58.347Z,22.92
2022-11-24T23:47:40.373Z,26.23
2022-11-24T23:50:27.346Z,25.60
2022-11-24T23:53:01.507Z,25.55
2022-11-24T23:55:48.370Z,24.35
2022-11-24T23:58:29.353Z,23.52
